Time;durP1;ratioP1;P1;durP2;ratioP2;P2;SDS_P1;SDS_P2;PMS_P1;PMS_P2;Temp;Humidity;BMP_temperature;BMP_pressure;BME280_temperature;BME280_humidity;BME280_pressure;Samples;Min_cycle;Max_cycle;Signal;HPM_P1;HPM_P2
2023/02/06 00:01:22;;;;;;;41.75;8.10;;;4.10;86.00;;;;;;5015942;28;20745;-73
2023/02/06 00:03:48;;;;;;;50.33;9.30;;;4.20;85.50;;;;;;5015135;28;20393;-73
2023/02/06 00:06:13;;;;;;;44.10;8.13;;;4.10;84.90;;;;;;5012342;28;20500;-73
2023/02/06 00:08:39;;;;;;;49.72;9.55;;;4.00;87.30;;;;;;5013429;28;20862;-73
2023/02/06 00:11:06;;;;;;;50.80;8.60;;;4.00;87.20;;;;;;5014181;28;20374;-76
2023/02/06 00:13:33;;;;;;;51.95;9.55;;;4.00;86.10;;;;;;5013504;28;20849;-74
2023/02/06 00:15:59;;;;;;;50.13;8.90;;;4.00;86.20;;;;;;5013205;28;20393;-73
2023/02/06 00:18:25;;;;;;;51.92;9.30;;;3.80;87.60;;;;;;5013338;28;20443;-74
2023/02/06 00:20:50;;;;;;;49.55;9.23;;;3.80;89.40;;;;;;5012965;28;20969;-74
2023/02/06 00:23:16;;;;;;;51.80;9.10;;;3.80;90.10;;;;;;5012840;28;20435;-73
2023/02/06 00:25:41;;;;;;;62.73;9.50;;;3.80;91.50;;;;;;5012938;28;20466;-73
2023/02/06 00:28:07;;;;;;;49.77;8.67;;;4.00;88.30;;;;;;5012839;28;20393;-73
2023/02/06 00:30:32;;;;;;;43.25;8.35;;;3.90;88.30;;;;;;5012748;28;20391;-73
2023/02/06 00:32:58;;;;;;;44.75;8.48;;;3.80;88.20;;;;;;5012594;28;20392;-74
2023/02/06 00:35:24;;;;;;;42.67;8.20;;;3.90;89.30;;;;;;5011586;28;20488;-73
2023/02/06 00:37:50;;;;;;;52.35;9.75;;;3.80;89.00;;;;;;5011692;28;20412;-72
2023/02/06 00:40:16;;;;;;;45.70;8.93;;;3.80;90.10;;;;;;5012947;28;20408;-73
2023/02/06 00:42:41;;;;;;;56.35;8.43;;;3.70;91.30;;;;;;5013712;28;20395;-75
2023/02/06 00:45:07;;;;;;;61.83;9.63;;;3.70;91.20;;;;;;5012633;28;20384;-74
2023/02/06 00:47:34;;;;;;;51.20;9.45;;;3.60;91.10;;;;;;5012353;28;20395;-72
2023/02/06 00:50:00;;;;;;;61.35;10.30;;;3.50;94.10;;;;;;5013717;28;20471;-73
2023/02/06 00:52:25;;;;;;;51.27;9.60;;;3.50;95.40;;;;;;5013268;28;20419;-72
2023/02/06 00:54:51;;;;;;;57.72;8.23;;;3.50;94.60;;;;;;5012801;28;20384;-74
2023/02/06 00:57:16;;;;;;;64.57;9.23;;;3.50;93.00;;;;;;5012614;28;20396;-75
2023/02/06 00:59:42;;;;;;;59.80;9.68;;;3.50;93.70;;;;;;5014229;28;20392;-75
2023/02/06 01:02:08;;;;;;;50.03;8.13;;;3.70;91.90;;;;;;5020158;28;20450;-74
2023/02/06 01:04:33;;;;;;;48.53;7.93;;;3.70;90.50;;;;;;5029515;28;20368;-74
2023/02/06 01:06:59;;;;;;;46.53;8.70;;;3.70;90.30;;;;;;5027187;28;20440;-74
2023/02/06 01:09:27;;;;;;;61.80;9.32;;;3.60;90.70;;;;;;5025904;28;20389;-72
2023/02/06 01:11:53;;;;;;;52.80;8.60;;;3.60;91.60;;;;;;5022702;28;20389;-73
2023/02/06 01:14:18;;;;;;;42.70;8.27;;;3.50;92.60;;;;;;5011208;28;20757;-73
2023/02/06 01:16:44;;;;;;;51.90;8.57;;;3.50;93.40;;;;;;5027610;28;20393;-74
2023/02/06 01:19:09;;;;;;;49.67;9.60;;;3.50;94.30;;;;;;5031336;28;20399;-72
2023/02/06 01:21:36;;;;;;;43.10;7.97;;;3.50;93.90;;;;;;5016169;28;20388;-73
2023/02/06 01:24:02;;;;;;;51.88;7.95;;;3.40;94.40;;;;;;5013546;28;20793;-74
2023/02/06 01:26:27;;;;;;;43.35;8.30;;;3.40;95.00;;;;;;5012822;28;20491;-74
2023/02/06 01:28:53;;;;;;;55.20;9.33;;;3.30;95.40;;;;;;5012290;28;20431;-72
2023/02/06 01:31:25;;;;;;;46.33;9.23;;;3.30;95.70;;;;;;5011748;28;20396;-74
2023/02/06 01:33:51;;;;;;;54.35;9.45;;;3.20;96.50;;;;;;5011617;28;20404;-73
2023/02/06 01:36:19;;;;;;;34.92;7.95;;;3.20;96.80;;;;;;5012150;28;20544;-74
2023/02/06 01:38:45;;;;;;;56.15;10.15;;;3.20;96.80;;;;;;5011370;28;20389;-74
2023/02/06 01:41:12;;;;;;;48.25;8.80;;;3.20;97.20;;;;;;5011866;28;20388;-74
2023/02/06 01:43:41;;;;;;;43.85;8.35;;;3.10;97.40;;;;;;5012333;28;20426;-74
2023/02/06 01:46:08;;;;;;;46.83;8.95;;;3.10;98.20;;;;;;5011769;28;20412;-74
2023/02/06 01:48:37;;;;;;;49.33;10.02;;;3.00;98.50;;;;;;5011945;28;20386;-72
2023/02/06 01:51:06;;;;;;;54.33;9.52;;;2.90;98.90;;;;;;5011560;28;20943;-75
2023/02/06 01:53:33;;;;;;;59.63;9.75;;;2.90;99.90;;;;;;5011811;28;20388;-73
2023/02/06 01:56:03;;;;;;;50.67;9.57;;;2.90;99.90;;;;;;5010633;28;20404;-72
2023/02/06 01:58:43;;;;;;;52.38;10.45;;;3.00;99.90;;;;;;5012689;28;20526;-74
2023/02/06 02:01:09;;;;;;;53.45;9.05;;;3.00;99.30;;;;;;5012071;28;20397;-74
2023/02/06 02:03:38;;;;;;;59.08;9.23;;;3.00;99.00;;;;;;5013062;28;20396;-74
2023/02/06 02:06:14;;;;;;;58.17;9.35;;;3.00;99.60;;;;;;5029668;28;20404;-73
2023/02/06 02:08:42;;;;;;;51.78;9.52;;;3.00;99.50;;;;;;5023546;28;20896;-75
2023/02/06 02:11:10;;;;;;;47.85;8.05;;;3.00;99.80;;;;;;5014058;28;20393;-74
2023/02/06 02:13:37;;;;;;;43.13;8.68;;;3.00;99.60;;;;;;5014763;28;20486;-73
2023/02/06 02:16:21;;;;;;;47.67;9.48;;;2.90;99.40;;;;;;5013646;28;20392;-73
2023/02/06 02:19:08;;;;;;;58.45;9.90;;;2.90;99.20;;;;;;5016857;28;20381;-73
2023/02/06 02:21:42;;;;;;;51.27;8.60;;;2.90;99.20;;;;;;5012828;28;20374;-73
2023/02/06 02:24:45;;;;;;;49.47;9.07;;;2.80;99.50;;;;;;5012110;28;20924;-74
2023/02/06 02:27:34;;;;;;;52.47;9.80;;;2.80;99.90;;;;;;5010991;28;20527;-72
2023/02/06 02:30:09;;;;;;;42.33;9.93;;;2.70;99.90;;;;;;5011699;28;20412;-75
2023/02/06 02:32:59;;;;;;;38.08;8.75;;;2.70;99.90;;;;;;5011775;28;20376;-74
2023/02/06 02:35:51;;;;;;;53.63;10.40;;;2.70;99.90;;;;;;5010376;28;20393;-73
2023/02/06 02:38:40;;;;;;;50.63;8.80;;;2.70;99.90;;;;;;5009610;28;20405;-73
2023/02/06 02:41:11;;;;;;;43.03;8.25;;;2.70;99.90;;;;;;5011973;28;20750;-74
2023/02/06 02:43:54;;;;;;;40.50;8.13;;;2.70;99.90;;;;;;5023014;28;20456;-73
2023/02/06 02:46:26;;;;;;;54.45;9.18;;;2.70;99.90;;;;;;5018964;28;20405;-74
2023/02/06 02:48:58;;;;;;;50.05;8.98;;;2.70;99.90;;;;;;5013653;28;20441;-74
2023/02/06 02:51:23;;;;;;;52.47;9.07;;;2.70;99.90;;;;;;5010091;28;20389;-73
2023/02/06 02:53:49;;;;;;;50.23;9.13;;;2.70;99.90;;;;;;5011577;28;20392;-73
2023/02/06 02:56:23;;;;;;;57.23;9.30;;;2.70;99.90;;;;;;5011708;28;20738;-74
2023/02/06 02:59:14;;;;;;;49.45;9.70;;;2.70;99.90;;;;;;5010806;28;20956;-73
2023/02/06 03:01:43;;;;;;;48.58;8.95;;;2.70;99.90;;;;;;5008504;28;20812;-74
2023/02/06 03:04:19;;;;;;;49.67;9.95;;;2.60;99.90;;;;;;5010770;28;20411;-74
2023/02/06 03:06:48;;;;;;;55.22;9.90;;;2.60;99.90;;;;;;5011848;28;20479;-75
2023/02/06 03:09:32;;;;;;;62.65;9.95;;;2.60;99.90;;;;;;5011418;28;20382;-75
2023/02/06 03:12:16;;;;;;;49.15;10.40;;;2.50;99.90;;;;;;5010970;28;20380;-72
2023/02/06 03:14:52;;;;;;;54.13;9.32;;;2.50;99.90;;;;;;5014439;28;20413;-73
2023/02/06 03:17:30;;;;;;;56.35;9.57;;;2.50;99.90;;;;;;5016253;28;20464;-75
2023/02/06 03:19:57;;;;;;;54.83;11.25;;;2.50;99.90;;;;;;5014012;28;20397;-72
2023/02/06 03:22:23;;;;;;;55.88;10.02;;;2.40;99.90;;;;;;5014449;28;20400;-73
2023/02/06 03:24:52;;;;;;;42.17;9.40;;;2.30;99.90;;;;;;5014468;28;20400;-73
2023/02/06 03:27:19;;;;;;;44.67;9.33;;;2.40;99.90;;;;;;5014238;28;20777;-75
2023/02/06 03:29:49;;;;;;;42.40;9.90;;;2.30;99.90;;;;;;5014027;28;20389;-74
2023/02/06 03:32:31;;;;;;;52.72;8.68;;;2.30;99.90;;;;;;5016207;28;20703;-74
2023/02/06 03:35:05;;;;;;;40.83;9.15;;;2.30;99.90;;;;;;5015451;28;20390;-74
2023/02/06 03:37:34;;;;;;;50.00;9.50;;;2.30;99.90;;;;;;5014123;28;20392;-74
2023/02/06 03:40:00;;;;;;;55.13;9.98;;;2.20;99.90;;;;;;5018017;28;20383;-74
2023/02/06 03:42:28;;;;;;;51.88;9.27;;;2.20;99.90;;;;;;5017243;28;20381;-72
2023/02/06 03:45:01;;;;;;;52.45;10.10;;;2.20;99.90;;;;;;5016823;28;20420;-73
2023/02/06 03:47:28;;;;;;;44.53;9.52;;;2.20;99.90;;;;;;5016361;28;20466;-72
2023/02/06 03:49:58;;;;;;;57.83;8.95;;;2.00;99.90;;;;;;5017846;28;20407;-74
2023/02/06 03:52:28;;;;;;;43.45;9.20;;;2.10;99.90;;;;;;5015555;28;20484;-74
2023/02/06 03:55:01;;;;;;;47.58;9.15;;;2.20;99.90;;;;;;5014904;28;20407;-74
2023/02/06 03:57:30;;;;;;;49.75;9.48;;;2.20;99.90;;;;;;5015754;28;20393;-73
2023/02/06 03:59:55;;;;;;;42.92;9.85;;;2.20;99.90;;;;;;5015250;28;20418;-74
2023/02/06 04:02:24;;;;;;;61.87;9.83;;;2.00;99.90;;;;;;5016886;28;20417;-73
2023/02/06 04:04:49;;;;;;;57.00;9.77;;;2.00;99.90;;;;;;5018794;28;20400;-72
2023/02/06 04:07:24;;;;;;;50.50;9.93;;;2.10;99.90;;;;;;5020393;28;20430;-72
2023/02/06 04:09:50;;;;;;;45.55;8.82;;;2.20;99.90;;;;;;5019062;28;20413;-74
2023/02/06 04:12:17;;;;;;;48.15;9.80;;;2.20;99.90;;;;;;5017323;28;20389;-73
2023/02/06 04:14:43;;;;;;;50.75;9.57;;;2.20;99.90;;;;;;5014460;28;20446;-75
2023/02/06 04:17:10;;;;;;;47.25;8.40;;;2.10;99.90;;;;;;5014185;28;20424;-73
2023/02/06 04:19:36;;;;;;;57.90;9.65;;;2.00;99.90;;;;;;5014288;28;20519;-73
2023/02/06 04:22:03;;;;;;;56.60;9.90;;;1.80;99.90;;;;;;5014125;28;20854;-72
2023/02/06 04:24:29;;;;;;;45.03;9.85;;;1.80;99.90;;;;;;5013246;28;20776;-73
2023/02/06 04:26:55;;;;;;;61.58;10.48;;;1.80;99.90;;;;;;5013530;28;20415;-73
2023/02/06 04:29:20;;;;;;;53.87;9.83;;;1.80;99.90;;;;;;5014536;28;20392;-73
2023/02/06 04:31:46;;;;;;;44.17;9.07;;;1.90;99.90;;;;;;5015251;28;20396;-75
2023/02/06 04:34:12;;;;;;;48.30;9.13;;;1.90;99.90;;;;;;5015656;28;20389;-74
2023/02/06 04:36:37;;;;;;;51.50;10.68;;;1.60;99.90;;;;;;5014358;28;20431;-73
2023/02/06 04:39:04;;;;;;;52.60;10.50;;;1.40;99.90;;;;;;5021508;28;20393;-72
2023/02/06 04:41:29;;;;;;;48.50;9.50;;;1.20;99.90;;;;;;5030067;28;20444;-72
2023/02/06 04:43:55;;;;;;;63.95;12.48;;;1.10;99.90;;;;;;5015409;28;20440;-72
2023/02/06 04:46:21;;;;;;;64.60;12.45;;;1.10;99.90;;;;;;5012945;28;20436;-73
2023/02/06 04:48:46;;;;;;;52.83;10.33;;;1.10;99.90;;;;;;5013750;28;20389;-74
2023/02/06 04:51:12;;;;;;;41.97;9.93;;;1.20;99.90;;;;;;5011864;28;20496;-73
2023/02/06 04:53:38;;;;;;;56.78;9.55;;;1.20;99.90;;;;;;5011977;28;20412;-73
2023/02/06 04:56:06;;;;;;;50.05;10.25;;;1.20;99.90;;;;;;5011783;28;20385;-75
2023/02/06 04:58:33;;;;;;;55.90;10.17;;;1.30;99.90;;;;;;5014896;28;21265;-74
2023/02/06 05:00:58;;;;;;;51.20;10.45;;;1.50;99.90;;;;;;5016868;28;20392;-74
2023/02/06 05:03:24;;;;;;;56.60;11.15;;;1.80;99.90;;;;;;5015235;28;20396;-73
2023/02/06 05:05:53;;;;;;;53.17;10.30;;;2.00;99.90;;;;;;5017758;28;20975;-75
2023/02/06 05:08:18;;;;;;;50.88;10.45;;;2.10;99.90;;;;;;5017667;28;20735;-72
2023/02/06 05:10:44;;;;;;;50.70;10.07;;;2.20;99.90;;;;;;5020096;28;20462;-75
2023/02/06 05:13:10;;;;;;;44.20;10.13;;;2.30;99.90;;;;;;5017107;28;20425;-74
2023/02/06 05:15:37;;;;;;;46.90;11.18;;;2.30;99.90;;;;;;5012384;28;20700;-74
2023/02/06 05:18:03;;;;;;;58.33;11.30;;;2.30;99.90;;;;;;5012850;28;20395;-72
2023/02/06 05:20:29;;;;;;;45.00;10.80;;;2.30;99.90;;;;;;5012423;28;20434;-73
2023/02/06 05:22:55;;;;;;;50.63;10.07;;;2.10;99.90;;;;;;5012160;28;20395;-76
2023/02/06 05:25:20;;;;;;;46.83;10.93;;;2.30;99.90;;;;;;5012291;28;20393;-73
2023/02/06 05:27:46;;;;;;;55.08;10.95;;;2.40;99.90;;;;;;5012252;28;20409;-73
2023/02/06 05:30:13;;;;;;;50.10;10.50;;;2.40;99.90;;;;;;5012628;28;20881;-74
2023/02/06 05:32:39;;;;;;;39.85;10.32;;;2.50;99.90;;;;;;5013018;28;20400;-74
2023/02/06 05:35:05;;;;;;;44.50;11.23;;;2.60;98.00;;;;;;5013448;28;20449;-75
2023/02/06 05:37:31;;;;;;;55.10;12.00;;;2.50;97.90;;;;;;5012972;28;20447;-74
2023/02/06 05:39:57;;;;;;;63.80;11.40;;;2.40;98.30;;;;;;5012185;28;20397;-74
2023/02/06 05:42:22;;;;;;;46.40;11.15;;;2.40;99.90;;;;;;5013735;28;20781;-73
2023/02/06 05:44:48;;;;;;;53.42;11.32;;;2.50;99.90;;;;;;5014285;28;20401;-74
2023/02/06 05:47:13;;;;;;;47.30;11.23;;;2.60;99.90;;;;;;5014656;28;20474;-74
2023/02/06 05:49:39;;;;;;;54.10;10.80;;;2.70;98.00;;;;;;5016260;28;20385;-73
2023/02/06 05:52:05;;;;;;;57.70;12.33;;;2.70;96.10;;;;;;5014565;28;20389;-75
2023/02/06 05:54:30;;;;;;;56.73;11.90;;;2.70;96.30;;;;;;5014838;28;20869;-73
2023/02/06 05:56:56;;;;;;;71.47;12.70;;;2.70;97.70;;;;;;5015543;28;20476;-73
2023/02/06 05:59:22;;;;;;;50.75;11.88;;;2.70;96.40;;;;;;5014531;28;20428;-74
2023/02/06 06:01:48;;;;;;;66.35;13.20;;;2.70;98.70;;;;;;5013028;28;20381;-73
2023/02/06 06:04:14;;;;;;;66.37;12.70;;;2.70;99.20;;;;;;5012830;28;20417;-72
2023/02/06 06:06:39;;;;;;;68.47;13.70;;;2.60;99.90;;;;;;5013094;28;20415;-74
2023/02/06 06:09:05;;;;;;;80.53;13.65;;;2.60;99.90;;;;;;5013733;28;20862;-74
2023/02/06 06:11:32;;;;;;;50.30;11.93;;;2.70;99.90;;;;;;5012930;28;20389;-74
2023/02/06 06:13:57;;;;;;;70.63;13.18;;;2.70;99.90;;;;;;5013627;28;20472;-74
2023/02/06 06:16:23;;;;;;;59.63;13.03;;;2.60;99.90;;;;;;5013304;28;20507;-75
2023/02/06 06:18:48;;;;;;;46.47;12.00;;;2.70;99.90;;;;;;5014069;28;20458;-74
2023/02/06 06:21:14;;;;;;;53.60;12.27;;;2.70;99.90;;;;;;5012830;28;20397;-73
2023/02/06 06:23:40;;;;;;;57.85;13.40;;;2.80;99.90;;;;;;5013722;28;20420;-74
2023/02/06 06:26:05;;;;;;;42.40;12.83;;;2.80;99.90;;;;;;5013890;28;20790;-75
2023/02/06 06:28:33;;;;;;;42.80;12.17;;;2.90;99.90;;;;;;5012530;28;20391;-74
2023/02/06 06:31:03;;;;;;;35.47;12.75;;;2.90;99.90;;;;;;5012480;28;20917;-74
2023/02/06 06:33:29;;;;;;;44.60;14.00;;;2.90;99.90;;;;;;5011279;28;20504;-73
2023/02/06 06:35:54;;;;;;;50.80;15.48;;;2.90;99.90;;;;;;5011705;28;20396;-74
2023/02/06 06:38:20;;;;;;;38.03;12.07;;;2.90;99.90;;;;;;5012729;28;20962;-72
2023/02/06 06:40:46;;;;;;;37.77;12.40;;;2.90;99.90;;;;;;5012253;28;20866;-74
2023/02/06 06:43:11;;;;;;;41.47;12.27;;;2.80;99.90;;;;;;5013483;28;20420;-76
2023/02/06 06:45:37;;;;;;;65.30;14.60;;;2.90;99.90;;;;;;5014482;28;20416;-74
2023/02/06 06:48:02;;;;;;;52.13;14.25;;;2.80;99.90;;;;;;5024887;28;20407;-73
2023/02/06 06:50:28;;;;;;;34.40;13.50;;;2.90;99.90;;;;;;5026414;28;20440;-75
2023/02/06 06:52:53;;;;;;;63.20;13.53;;;2.90;99.90;;;;;;5028344;28;20392;-73
2023/02/06 06:55:19;;;;;;;56.27;14.60;;;2.90;99.90;;;;;;5025206;28;20389;-74
2023/02/06 06:57:45;;;;;;;54.80;14.97;;;2.80;99.90;;;;;;5017734;28;20435;-75
2023/02/06 07:00:12;;;;;;;64.85;14.30;;;2.90;99.90;;;;;;5017078;28;20392;-74
2023/02/06 07:02:38;;;;;;;56.92;13.93;;;2.80;99.90;;;;;;5017888;28;20393;-74
2023/02/06 07:05:04;;;;;;;40.53;13.05;;;2.90;99.90;;;;;;5018254;28;20435;-73
2023/02/06 07:07:30;;;;;;;60.20;13.98;;;2.80;99.90;;;;;;5019206;28;20511;-74
2023/02/06 07:09:56;;;;;;;48.70;13.80;;;2.80;99.90;;;;;;5020658;28;20482;-74
2023/02/06 07:12:21;;;;;;;60.97;14.60;;;2.80;99.90;;;;;;5023215;28;20400;-72
2023/02/06 07:14:47;;;;;;;36.45;14.65;;;2.80;99.90;;;;;;5024647;28;20991;-74
2023/02/06 07:17:13;;;;;;;34.73;14.83;;;2.80;99.90;;;;;;5018640;28;20476;-73
2023/02/06 07:19:38;;;;;;;40.73;14.13;;;2.80;99.90;;;;;;5018672;28;20929;-74
2023/02/06 07:22:04;;;;;;;43.00;15.80;;;2.90;99.90;;;;;;5016353;28;20377;-72
2023/02/06 07:24:30;;;;;;;42.85;15.40;;;2.90;99.90;;;;;;5016319;28;20399;-73
2023/02/06 07:26:56;;;;;;;38.77;15.43;;;3.00;99.90;;;;;;5015829;28;20416;-74
2023/02/06 07:29:22;;;;;;;42.35;14.73;;;3.10;99.90;;;;;;5016028;28;20447;-73
2023/02/06 07:31:48;;;;;;;37.67;14.27;;;3.20;99.90;;;;;;5016707;28;20396;-72
2023/02/06 07:34:14;;;;;;;38.93;13.90;;;3.30;99.90;;;;;;5017105;28;20381;-74
2023/02/06 07:36:39;;;;;;;38.13;13.87;;;3.50;99.90;;;;;;5015157;28;20529;-74
2023/02/06 07:39:05;;;;;;;37.60;13.68;;;3.50;98.20;;;;;;5017257;28;20741;-75
2023/02/06 07:41:30;;;;;;;41.60;13.95;;;3.60;93.90;;;;;;5016780;28;20400;-73
2023/02/06 07:43:56;;;;;;;41.42;14.32;;;3.60;91.50;;;;;;5016693;28;20396;-73
2023/02/06 07:46:21;;;;;;;34.23;13.17;;;3.50;96.00;;;;;;5019273;28;20400;-73
2023/02/06 07:48:47;;;;;;;32.97;13.93;;;3.60;96.30;;;;;;5020765;28;20404;-73
2023/02/06 07:51:13;;;;;;;36.70;13.40;;;3.60;98.00;;;;;;5021474;28;20407;-72
2023/02/06 07:53:38;;;;;;;31.37;12.43;;;3.70;99.90;;;;;;5023534;28;20484;-71
2023/02/06 07:56:30;;;;;;;38.33;11.90;;;3.90;96.80;;;;;;5024937;28;20404;-76
2023/02/06 07:58:56;;;;;;;29.30;12.90;;;3.90;88.30;;;;;;5021063;28;20774;-76
2023/02/06 08:01:22;;;;;;;34.60;12.37;;;3.90;86.60;;;;;;5020632;28;20389;-74
2023/02/06 08:03:49;;;;;;;27.75;11.82;;;3.90;86.20;;;;;;5020115;28;20393;-73
2023/02/06 08:06:15;;;;;;;32.95;11.73;;;4.00;86.60;;;;;;5016726;28;20478;-75
2023/02/06 08:08:42;;;;;;;31.30;12.07;;;4.10;84.90;;;;;;5016242;28;20727;-72
2023/02/06 08:11:11;;;;;;;32.35;12.70;;;4.10;86.40;;;;;;5022427;28;20424;-74
2023/02/06 08:13:37;;;;;;;33.00;12.52;;;4.20;83.60;;;;;;5021812;28;20381;-73
2023/02/06 08:16:04;;;;;;;31.10;12.98;;;4.20;83.70;;;;;;5020828;28;20428;-74
2023/02/06 08:18:30;;;;;;;35.30;12.63;;;4.20;81.70;;;;;;5014085;28;20488;-73
2023/02/06 08:21:04;;;;;;;34.35;14.20;;;4.20;85.30;;;;;;5018896;28;20439;-73
2023/02/06 08:23:30;;;;;;;29.43;12.10;;;4.40;82.80;;;;;;5017348;28;20435;-72
2023/02/06 08:26:04;;;;;;;38.08;13.70;;;4.40;81.80;;;;;;5015161;28;20412;-73
2023/02/06 08:28:31;;;;;;;40.15;13.10;;;4.50;81.50;;;;;;5014767;28;20785;-72
2023/02/06 08:30:56;;;;;;;38.40;13.27;;;4.50;81.30;;;;;;5013929;28;20377;-73
2023/02/06 08:33:22;;;;;;;38.80;14.20;;;4.50;79.30;;;;;;5014055;28;20468;-72
2023/02/06 08:35:48;;;;;;;32.73;12.33;;;4.50;81.80;;;;;;5014484;28;20761;-73
2023/02/06 08:38:13;;;;;;;35.47;13.20;;;4.70;78.70;;;;;;5013036;28;20408;-72
2023/02/06 08:40:39;;;;;;;43.35;13.52;;;4.60;77.60;;;;;;5012693;28;20413;-75
2023/02/06 08:43:04;;;;;;;44.15;15.30;;;4.60;78.60;;;;;;5009787;28;20437;-72
2023/02/06 08:45:30;;;;;;;36.25;13.88;;;4.70;79.30;;;;;;5006033;28;20450;-76
2023/02/06 08:47:55;;;;;;;35.80;14.07;;;4.70;78.50;;;;;;5019203;28;20455;-73
2023/02/06 08:50:21;;;;;;;37.15;14.30;;;4.70;77.20;;;;;;5019764;28;20724;-74
2023/02/06 08:52:46;;;;;;;32.85;13.23;;;4.80;75.10;;;;;;5020545;28;20423;-73
2023/02/06 08:55:12;;;;;;;31.70;13.18;;;4.80;76.00;;;;;;5014183;28;20391;-72
2023/02/06 08:57:37;;;;;;;35.78;13.40;;;4.80;76.30;;;;;;5010431;28;20416;-73
2023/02/06 09:00:04;;;;;;;34.17;13.43;;;5.00;74.30;;;;;;5020963;28;20385;-75
2023/02/06 09:02:29;;;;;;;33.55;13.75;;;5.10;72.70;;;;;;5020002;28;20538;-74
2023/02/06 09:04:55;;;;;;;36.90;14.85;;;5.30;69.80;;;;;;5020706;28;20432;-72
2023/02/06 09:07:21;;;;;;;36.47;14.75;;;5.30;71.20;;;;;;5020276;28;20417;-74
2023/02/06 09:09:46;;;;;;;40.70;15.60;;;5.30;75.20;;;;;;5020825;28;20384;-75
2023/02/06 09:12:12;;;;;;;38.85;13.15;;;5.60;71.50;;;;;;5017492;28;20432;-72
2023/02/06 09:14:38;;;;;;;42.60;14.00;;;5.80;68.80;;;;;;5015198;28;20409;-72
2023/02/06 09:17:03;;;;;;;39.53;14.07;;;5.80;64.10;;;;;;4994775;28;20457;-74
2023/02/06 09:19:29;;;;;;;38.08;12.30;;;5.90;66.30;;;;;;4992472;28;20756;-73
2023/02/06 09:21:54;;;;;;;39.58;14.80;;;5.80;65.10;;;;;;4991444;28;20402;-73
2023/02/06 09:24:20;;;;;;;39.73;13.87;;;5.80;66.90;;;;;;4998328;28;20404;-72
2023/02/06 09:26:46;;;;;;;37.23;13.90;;;5.90;66.30;;;;;;5010930;28;20415;-73
2023/02/06 09:29:12;;;;;;;29.90;12.90;;;5.90;63.60;;;;;;5011557;28;20396;-73
2023/02/06 09:31:40;;;;;;;39.33;14.10;;;6.00;63.70;;;;;;5010313;28;20862;-73
2023/02/06 09:34:07;;;;;;;35.42;14.93;;;6.00;60.10;;;;;;5010778;28;20400;-73
2023/02/06 09:36:35;;;;;;;38.67;16.40;;;5.80;63.00;;;;;;5012190;28;20765;-74
2023/02/06 09:39:04;;;;;;;37.83;14.82;;;5.80;63.90;;;;;;5013433;28;20406;-75
2023/02/06 09:41:48;;;;;;;41.03;16.65;;;5.70;63.00;;;;;;5017021;28;20472;-76
2023/02/06 09:44:21;;;;;;;37.47;16.00;;;5.50;68.90;;;;;;5020584;28;20439;-78
2023/02/06 09:46:49;;;;;;;38.90;17.00;;;5.60;69.00;;;;;;5024227;28;20476;-76
2023/02/06 09:49:24;;;;;;;45.80;18.17;;;5.70;68.20;;;;;;5029010;28;20398;-74
2023/02/06 09:52:05;;;;;;;39.60;16.63;;;5.60;69.70;;;;;;5021218;28;20849;-73
2023/02/06 09:55:05;;;;;;;45.17;18.50;;;5.30;71.10;;;;;;4992038;28;20861;-74
2023/02/06 09:57:43;;;;;;;40.28;17.55;;;5.60;72.30;;;;;;4963806;28;20572;-74
2023/02/06 10:00:29;;;;;;;41.22;17.88;;;5.90;66.00;;;;;;4992071;28;20478;-73
2023/02/06 10:03:00;;;;;;;38.75;17.20;;;6.20;62.80;;;;;;5010686;28;20395;-74
2023/02/06 10:05:37;;;;;;;41.70;17.70;;;6.40;59.00;;;;;;5010983;28;20392;-75
2023/02/06 10:08:14;;;;;;;53.13;19.45;;;6.60;58.70;;;;;;5002868;28;20400;-75
2023/02/06 10:10:50;;;;;;;35.90;18.17;;;6.60;57.10;;;;;;5011682;28;20457;-75
2023/02/06 10:13:29;;;;;;;39.63;17.50;;;6.50;57.20;;;;;;5012373;28;20379;-72
2023/02/06 10:16:00;;;;;;;46.70;17.42;;;6.60;57.60;;;;;;5013039;28;20412;-73
2023/02/06 10:18:44;;;;;;;48.20;19.10;;;6.60;57.10;;;;;;5015343;28;20511;-74
2023/02/06 10:21:42;;;;;;;48.50;19.17;;;6.70;57.50;;;;;;5012371;28;20505;-73
2023/02/06 10:24:41;;;;;;;47.38;19.23;;;6.60;57.60;;;;;;5001138;28;20433;-73
2023/02/06 10:27:12;;;;;;;51.55;20.73;;;6.50;59.10;;;;;;4974490;28;20418;-72
2023/02/06 10:29:39;;;;;;;50.28;19.40;;;6.50;59.50;;;;;;4996341;28;20400;-74
2023/02/06 10:32:18;;;;;;;44.83;17.95;;;6.70;59.30;;;;;;4997126;28;20390;-72
2023/02/06 10:34:59;;;;;;;49.22;18.48;;;7.00;54.10;;;;;;4996942;28;20400;-75
2023/02/06 10:37:49;;;;;;;50.80;20.88;;;7.10;52.80;;;;;;4996994;28;20443;-74
2023/02/06 10:40:28;;;;;;;59.92;21.65;;;7.10;54.10;;;;;;4996538;28;20379;-73
2023/02/06 10:43:05;;;;;;;49.83;18.67;;;7.00;54.70;;;;;;4996848;28;20386;-73
2023/02/06 10:45:39;;;;;;;42.97;17.90;;;7.00;54.10;;;;;;4996969;28;20672;-73
2023/02/06 10:48:35;;;;;;;47.90;16.85;;;7.10;54.90;;;;;;4998542;28;20380;-74
2023/02/06 10:51:23;;;;;;;48.05;17.33;;;7.10;54.30;;;;;;4997882;28;20516;-75
2023/02/06 10:53:52;;;;;;;50.13;17.23;;;6.90;53.80;;;;;;5004272;28;20489;-74
2023/02/06 10:56:21;;;;;;;48.83;16.92;;;6.70;54.60;;;;;;5007112;28;20477;-73
2023/02/06 10:59:09;;;;;;;39.83;16.15;;;6.70;56.00;;;;;;5005742;28;20461;-72
2023/02/06 11:01:38;;;;;;;48.70;16.80;;;6.80;58.40;;;;;;4996525;28;20388;-74
2023/02/06 11:04:13;;;;;;;39.85;14.75;;;7.10;54.30;;;;;;4996583;28;20384;-72
2023/02/06 11:06:41;;;;;;;44.63;15.52;;;7.10;53.50;;;;;;4995573;28;20410;-73
2023/02/06 11:09:08;;;;;;;39.08;14.90;;;6.70;56.80;;;;;;4995744;28;20410;-75
2023/02/06 11:11:40;;;;;;;42.75;16.13;;;6.50;58.80;;;;;;4994979;28;20465;-74
2023/02/06 11:14:25;;;;;;;42.47;13.85;;;6.40;61.60;;;;;;4995672;28;20378;-73
2023/02/06 11:16:51;;;;;;;42.63;14.80;;;6.40;61.30;;;;;;4996068;28;20378;-74
2023/02/06 11:19:29;;;;;;;45.80;14.82;;;6.20;65.30;;;;;;4999592;28;20394;-76
2023/02/06 11:22:04;;;;;;;40.23;16.40;;;6.20;64.10;;;;;;4999371;28;20386;-76
2023/02/06 11:24:30;;;;;;;38.30;16.83;;;6.30;65.30;;;;;;5000523;28;20462;-73
2023/02/06 11:27:00;;;;;;;45.53;15.60;;;6.20;64.80;;;;;;4996987;28;20412;-75
2023/02/06 11:29:30;;;;;;;47.15;17.75;;;6.20;67.20;;;;;;4995731;28;20449;-73
2023/02/06 11:31:59;;;;;;;46.33;15.57;;;6.30;66.40;;;;;;4996410;28;20436;-72
2023/02/06 11:34:35;;;;;;;50.27;18.60;;;6.30;64.60;;;;;;4998267;28;20468;-73
2023/02/06 11:37:19;;;;;;;41.45;15.30;;;6.50;63.20;;;;;;4998353;28;20394;-74
2023/02/06 11:39:44;;;;;;;41.55;17.58;;;6.40;62.00;;;;;;4999108;28;20390;-74
2023/02/06 11:42:14;;;;;;;47.00;17.90;;;6.20;67.50;;;;;;4997098;28;20391;-75
2023/02/06 11:44:41;;;;;;;45.97;15.80;;;6.20;67.10;;;;;;4995750;28;20415;-74
2023/02/06 11:47:35;;;;;;;50.07;17.90;;;6.30;65.30;;;;;;4995059;28;20565;-72
2023/02/06 11:50:13;;;;;;;48.70;16.05;;;6.50;66.00;;;;;;4994133;28;20390;-73
2023/02/06 11:52:41;;;;;;;42.85;13.90;;;6.90;59.00;;;;;;4994244;28;20394;-73
2023/02/06 11:55:21;;;;;;;40.22;11.60;;;7.00;56.90;;;;;;4994819;28;20449;-73
2023/02/06 11:58:12;;;;;;;40.55;11.60;;;6.80;55.20;;;;;;4994773;28;20436;-74
2023/02/06 12:00:40;;;;;;;34.25;11.93;;;6.90;54.50;;;;;;4994342;28;20483;-73
2023/02/06 12:03:29;;;;;;;35.80;11.10;;;7.10;56.00;;;;;;4994428;28;20389;-73
2023/02/06 12:05:58;;;;;;;35.13;12.50;;;7.50;49.60;;;;;;4995115;28;20776;-73
2023/02/06 12:08:35;;;;;;;41.03;11.87;;;7.70;49.20;;;;;;4993502;28;20537;-75
2023/02/06 12:11:04;;;;;;;33.40;12.10;;;7.70;47.90;;;;;;4993431;28;20650;-74
2023/02/06 12:13:37;;;;;;;37.47;13.13;;;7.70;48.20;;;;;;4995995;28;20385;-73
2023/02/06 12:16:06;;;;;;;41.50;14.57;;;7.70;48.20;;;;;;4995071;28;20520;-73
2023/02/06 12:18:36;;;;;;;42.72;14.35;;;7.90;49.10;;;;;;4999145;28;20402;-72
2023/02/06 12:21:11;;;;;;;37.45;13.73;;;7.90;47.80;;;;;;5010465;28;20480;-73
2023/02/06 12:23:41;;;;;;;32.90;13.60;;;7.90;46.30;;;;;;4998170;28;20449;-74
2023/02/06 12:26:16;;;;;;;41.85;15.85;;;7.70;48.30;;;;;;4994881;28;20410;-74
2023/02/06 12:29:05;;;;;;;40.70;16.73;;;7.60;50.90;;;;;;4993723;28;20378;-73
2023/02/06 12:31:48;;;;;;;37.17;15.18;;;7.70;53.70;;;;;;4993617;28;20418;-72
2023/02/06 12:34:54;;;;;;;40.10;14.23;;;8.00;48.60;;;;;;4992942;28;20472;-74
2023/02/06 12:37:49;;;;;;;34.30;13.70;;;8.00;46.30;;;;;;4994542;28;20876;-75
2023/02/06 12:40:37;;;;;;;43.92;15.00;;;7.50;49.60;;;;;;4994645;28;20384;-72
2023/02/06 12:43:08;;;;;;;40.28;15.77;;;7.20;52.80;;;;;;4994079;28;20407;-73
2023/02/06 12:45:59;;;;;;;42.50;14.40;;;7.20;54.30;;;;;;4993362;28;20416;-71
2023/02/06 12:48:34;;;;;;;40.57;16.27;;;7.00;54.80;;;;;;4994600;28;20410;-73
2023/02/06 12:51:27;;;;;;;40.97;15.27;;;7.10;58.40;;;;;;4992294;28;20390;-74
2023/02/06 12:54:01;;;;;;;41.90;16.05;;;7.10;55.00;;;;;;4994795;28;20438;-72
2023/02/06 12:56:49;;;;;;;49.60;15.82;;;7.10;56.70;;;;;;4994283;28;20394;-73